sensor_id;sensor_type;location;lat;lon;timestamp;pressure;altitude;pressure_sealevel;temperature;humidity
81151;BME280;70629;-26.026;27.976;2024-02-16T00:00:22;85868.78;;;22.66;61.76
81151;BME280;70629;-26.026;27.976;2024-02-16T00:01:02;85871.50;;;22.77;61.72
81151;BME280;70629;-26.026;27.976;2024-02-16T00:01:42;85878.38;;;22.63;61.14
81151;BME280;70629;-26.026;27.976;2024-02-16T00:02:22;85869.47;;;22.67;62.53
81151;BME280;70629;-26.026;27.976;2024-02-16T00:03:03;85877.03;;;22.54;62.81
81151;BME280;70629;-26.026;27.976;2024-02-16T00:03:42;85880.50;;;22.45;63.71
81151;BME280;70629;-26.026;27.976;2024-02-16T00:04:23;85872.28;;;22.37;64.25
81151;BME280;70629;-26.026;27.976;2024-02-16T00:05:03;85880.50;;;22.43;63.55
81151;BME280;70629;-26.026;27.976;2024-02-16T00:05:44;85879.81;;;22.38;63.63
81151;BME280;70629;-26.026;27.976;2024-02-16T00:06:24;85879.78;;;22.46;63.50
81151;BME280;70629;-26.026;27.976;2024-02-16T00:07:05;85878.47;;;22.31;62.61
81151;BME280;70629;-26.026;27.976;2024-02-16T00:07:45;85862.63;;;22.58;61.90
81151;BME280;70629;-26.026;27.976;2024-02-16T00:08:25;85856.47;;;22.57;62.23
81151;BME280;70629;-26.026;27.976;2024-02-16T00:09:04;85852.38;;;22.54;63.09
81151;BME280;70629;-26.026;27.976;2024-02-16T00:09:45;85853.81;;;22.15;64.03
81151;BME280;70629;-26.026;27.976;2024-02-16T00:10:24;85860.00;;;21.95;63.91
81151;BME280;70629;-26.026;27.976;2024-02-16T00:11:05;85863.41;;;22.14;63.74
81151;BME280;70629;-26.026;27.976;2024-02-16T00:11:45;85863.41;;;22.10;64.09
81151;BME280;70629;-26.026;27.976;2024-02-16T00:12:26;85867.53;;;22.13;64.39
81151;BME280;70629;-26.026;27.976;2024-02-16T00:13:06;85863.41;;;22.18;64.81
81151;BME280;70629;-26.026;27.976;2024-02-16T00:13:46;85863.41;;;22.10;63.99
81151;BME280;70629;-26.026;27.976;2024-02-16T00:14:26;85865.47;;;22.19;63.80
81151;BME280;70629;-26.026;27.976;2024-02-16T00:15:06;85869.56;;;22.20;62.86
81151;BME280;70629;-26.026;27.976;2024-02-16T00:15:46;85870.94;;;22.23;63.71
81151;BME280;70629;-26.026;27.976;2024-02-16T00:16:26;85870.25;;;22.23;63.59
81151;BME280;70629;-26.026;27.976;2024-02-16T00:17:06;85866.16;;;22.20;63.86
81151;BME280;70629;-26.026;27.976;2024-02-16T00:17:46;85859.28;;;22.23;63.76
81151;BME280;70629;-26.026;27.976;2024-02-16T00:18:26;85857.28;;;21.97;65.18
81151;BME280;70629;-26.026;27.976;2024-02-16T00:19:06;85855.91;;;22.02;65.99
81151;BME280;70629;-26.026;27.976;2024-02-16T00:19:46;85864.13;;;22.02;65.65
81151;BME280;70629;-26.026;27.976;2024-02-16T00:20:26;85866.19;;;22.08;65.32
81151;BME280;70629;-26.026;27.976;2024-02-16T00:21:07;85863.44;;;22.12;66.25
81151;BME280;70629;-26.026;27.976;2024-02-16T00:21:46;85859.28;;;22.25;65.50
81151;BME280;70629;-26.026;27.976;2024-02-16T00:22:26;85862.75;;;22.05;65.14
81151;BME280;70629;-26.026;27.976;2024-02-16T00:23:06;85861.38;;;22.12;65.14
81151;BME280;70629;-26.026;27.976;2024-02-16T00:23:46;85862.72;;;22.09;63.81
81151;BME280;70629;-26.026;27.976;2024-02-16T00:24:26;85860.00;;;22.15;64.08
81151;BME280;70629;-26.026;27.976;2024-02-16T00:25:06;85856.56;;;22.17;63.24
81151;BME280;70629;-26.026;27.976;2024-02-16T00:25:46;85849.69;;;22.24;63.04
81151;BME280;70629;-26.026;27.976;2024-02-16T00:26:27;85858.59;;;22.22;62.79
81151;BME280;70629;-26.026;27.976;2024-02-16T00:27:06;85849.03;;;22.13;63.33
81151;BME280;70629;-26.026;27.976;2024-02-16T00:27:46;85849.75;;;22.08;63.17
81151;BME280;70629;-26.026;27.976;2024-02-16T00:28:27;85842.22;;;21.78;64.60
81151;BME280;70629;-26.026;27.976;2024-02-16T00:29:07;85849.75;;;21.69;65.15
81151;BME280;70629;-26.026;27.976;2024-02-16T00:29:47;85833.31;;;21.53;65.27
81151;BME280;70629;-26.026;27.976;2024-02-16T00:30:27;85841.53;;;21.49;65.59
81151;BME280;70629;-26.026;27.976;2024-02-16T00:31:07;85838.78;;;21.71;65.23
81151;BME280;70629;-26.026;27.976;2024-02-16T00:31:47;85840.84;;;21.97;64.39
81151;BME280;70629;-26.026;27.976;2024-02-16T00:32:27;85838.09;;;21.95;63.49
81151;BME280;70629;-26.026;27.976;2024-02-16T00:33:09;85838.09;;;21.99;63.75
81151;BME280;70629;-26.026;27.976;2024-02-16T00:33:50;85834.66;;;21.93;63.86
81151;BME280;70629;-26.026;27.976;2024-02-16T00:34:30;85840.16;;;21.78;65.81
81151;BME280;70629;-26.026;27.976;2024-02-16T00:35:11;85833.28;;;21.85;65.48
81151;BME280;70629;-26.026;27.976;2024-02-16T00:35:51;85829.91;;;21.73;64.62
81151;BME280;70629;-26.026;27.976;2024-02-16T00:36:32;85834.69;;;21.97;64.43
81151;BME280;70629;-26.026;27.976;2024-02-16T00:37:13;85831.94;;;21.88;64.31
81151;BME280;70629;-26.026;27.976;2024-02-16T00:37:53;85827.16;;;21.97;64.76
81151;BME280;70629;-26.026;27.976;2024-02-16T00:38:32;85829.88;;;21.83;63.63
81151;BME280;70629;-26.026;27.976;2024-02-16T00:39:12;85820.31;;;21.66;64.24
81151;BME280;70629;-26.026;27.976;2024-02-16T00:39:53;85816.91;;;21.49;64.70
81151;BME280;70629;-26.026;27.976;2024-02-16T00:40:35;85825.78;;;21.68;64.17
81151;BME280;70629;-26.026;27.976;2024-02-16T00:41:18;85823.06;;;21.80;63.63
81151;BME280;70629;-26.026;27.976;2024-02-16T00:41:58;85816.88;;;21.92;63.02
81151;BME280;70629;-26.026;27.976;2024-02-16T00:42:38;85820.31;;;21.98;62.08
81151;BME280;70629;-26.026;27.976;2024-02-16T00:43:18;85818.94;;;21.75;62.73
81151;BME280;70629;-26.026;27.976;2024-02-16T00:43:58;85823.72;;;21.93;63.01
81151;BME280;70629;-26.026;27.976;2024-02-16T00:44:38;85834.69;;;21.99;63.48
81151;BME280;70629;-26.026;27.976;2024-02-16T00:45:18;85828.53;;;21.88;63.89
81151;BME280;70629;-26.026;27.976;2024-02-16T00:45:58;85836.75;;;21.74;63.48
81151;BME280;70629;-26.026;27.976;2024-02-16T00:46:38;85834.00;;;21.68;63.70
81151;BME280;70629;-26.026;27.976;2024-02-16T00:47:18;85831.94;;;21.66;63.88
81151;BME280;70629;-26.026;27.976;2024-02-16T00:47:57;85834.00;;;21.78;64.39
81151;BME280;70629;-26.026;27.976;2024-02-16T00:48:38;85840.16;;;21.88;64.81
81151;BME280;70629;-26.026;27.976;2024-02-16T00:49:18;85839.44;;;21.90;64.46
81151;BME280;70629;-26.026;27.976;2024-02-16T00:49:58;85842.22;;;21.98;63.95
81151;BME280;70629;-26.026;27.976;2024-02-16T00:50:38;85843.59;;;21.95;63.67
81151;BME280;70629;-26.026;27.976;2024-02-16T00:51:18;85851.13;;;21.84;63.67
81151;BME280;70629;-26.026;27.976;2024-02-16T00:51:58;85846.31;;;21.87;63.48
81151;BME280;70629;-26.026;27.976;2024-02-16T00:52:38;85842.88;;;21.76;65.06
81151;BME280;70629;-26.026;27.976;2024-02-16T00:53:19;85848.34;;;21.76;64.99
81151;BME280;70629;-26.026;27.976;2024-02-16T00:53:59;85847.00;;;21.71;65.57
81151;BME280;70629;-26.026;27.976;2024-02-16T00:54:38;85845.63;;;21.80;65.44
81151;BME280;70629;-26.026;27.976;2024-02-16T00:55:19;85852.47;;;21.96;65.20
81151;BME280;70629;-26.026;27.976;2024-02-16T00:55:59;85852.47;;;21.77;65.13
81151;BME280;70629;-26.026;27.976;2024-02-16T00:56:39;85847.69;;;21.50;65.78
81151;BME280;70629;-26.026;27.976;2024-02-16T00:57:18;85853.84;;;21.48;66.27
81151;BME280;70629;-26.026;27.976;2024-02-16T00:57:59;85851.78;;;21.79;65.86
81151;BME280;70629;-26.026;27.976;2024-02-16T00:58:42;85844.25;;;21.81;65.64
81151;BME280;70629;-26.026;27.976;2024-02-16T00:59:21;85848.38;;;22.07;64.97
81151;BME280;70629;-26.026;27.976;2024-02-16T01:00:01;85850.41;;;21.82;64.63
81151;BME280;70629;-26.026;27.976;2024-02-16T01:00:43;85848.38;;;21.58;65.28
81151;BME280;70629;-26.026;27.976;2024-02-16T01:01:24;85847.00;;;21.53;65.78
81151;BME280;70629;-26.026;27.976;2024-02-16T01:02:05;85840.84;;;21.71;65.49
81151;BME280;70629;-26.026;27.976;2024-02-16T01:02:46;85839.47;;;21.52;65.92
81151;BME280;70629;-26.026;27.976;2024-02-16T01:03:26;85848.38;;;21.68;65.54
81151;BME280;70629;-26.026;27.976;2024-02-16T01:04:05;85841.53;;;21.73;66.29
81151;BME280;70629;-26.026;27.976;2024-02-16T01:04:48;85838.78;;;21.83;66.32
81151;BME280;70629;-26.026;27.976;2024-02-16T01:05:29;85843.56;;;21.83;66.56
81151;BME280;70629;-26.026;27.976;2024-02-16T01:06:09;85849.03;;;21.49;68.10
81151;BME280;70629;-26.026;27.976;2024-02-16T01:06:50;85849.06;;;21.55;68.18
81151;BME280;70629;-26.026;27.976;2024-02-16T01:07:29;85838.78;;;21.69;67.75
81151;BME280;70629;-26.026;27.976;2024-02-16T01:08:10;85840.84;;;21.53;68.25
81151;BME280;70629;-26.026;27.976;2024-02-16T01:08:50;85845.59;;;21.34;69.19
81151;BME280;70629;-26.026;27.976;2024-02-16T01:09:30;85841.53;;;21.37;69.27
81151;BME280;70629;-26.026;27.976;2024-02-16T01:10:11;85840.13;;;21.18;70.24
81151;BME280;70629;-26.026;27.976;2024-02-16T01:10:51;85845.59;;;21.16;69.95
81151;BME280;70629;-26.026;27.976;2024-02-16T01:11:31;85842.81;;;21.06;70.72
81151;BME280;70629;-26.026;27.976;2024-02-16T01:12:11;85845.59;;;21.24;70.01
81151;BME280;70629;-26.026;27.976;2024-02-16T01:12:51;85840.81;;;21.28;69.69
81151;BME280;70629;-26.026;27.976;2024-02-16T01:13:31;85838.78;;;21.55;68.80
81151;BME280;70629;-26.026;27.976;2024-02-16T01:14:12;85840.16;;;21.66;68.42
81151;BME280;70629;-26.026;27.976;2024-02-16T01:14:52;85837.44;;;21.46;69.29
81151;BME280;70629;-26.026;27.976;2024-02-16T01:15:32;85839.47;;;21.27;70.13
81151;BME280;70629;-26.026;27.976;2024-02-16T01:16:12;85838.78;;;21.57;69.47
81151;BME280;70629;-26.026;27.976;2024-02-16T01:16:51;85852.47;;;21.53;69.02
81151;BME280;70629;-26.026;27.976;2024-02-16T01:17:31;85841.53;;;21.55;68.39
81151;BME280;70629;-26.026;27.976;2024-02-16T01:18:14;85851.09;;;21.76;67.88
81151;BME280;70629;-26.026;27.976;2024-02-16T01:18:54;85849.06;;;21.83;67.82
81151;BME280;70629;-26.026;27.976;2024-02-16T01:19:34;85852.47;;;21.57;68.00
81151;BME280;70629;-26.026;27.976;2024-02-16T01:20:16;85843.56;;;21.71;67.83
81151;BME280;70629;-26.026;27.976;2024-02-16T01:20:55;85850.41;;;21.78;67.80
81151;BME280;70629;-26.026;27.976;2024-02-16T01:21:35;85847.00;;;21.83;67.72
81151;BME280;70629;-26.026;27.976;2024-02-16T01:22:15;85841.53;;;21.87;67.91
81151;BME280;70629;-26.026;27.976;2024-02-16T01:22:55;85849.75;;;21.83;67.34
81151;BME280;70629;-26.026;27.976;2024-02-16T01:23:35;85845.63;;;21.80;67.56
81151;BME280;70629;-26.026;27.976;2024-02-16T01:24:14;85838.09;;;21.85;67.34
81151;BME280;70629;-26.026;27.976;2024-02-16T01:24:55;85845.66;;;21.97;67.41
81151;BME280;70629;-26.026;27.976;2024-02-16T01:25:34;85841.53;;;22.02;66.49
81151;BME280;70629;-26.026;27.976;2024-02-16T01:26:14;85849.72;;;21.81;66.38
81151;BME280;70629;-26.026;27.976;2024-02-16T01:26:54;85837.41;;;21.66;67.07
81151;BME280;70629;-26.026;27.976;2024-02-16T01:27:35;85840.16;;;21.68;67.10
81151;BME280;70629;-26.026;27.976;2024-02-16T01:28:15;85847.00;;;21.57;67.86
81151;BME280;70629;-26.026;27.976;2024-02-16T01:28:55;85840.16;;;21.54;67.78
81151;BME280;70629;-26.026;27.976;2024-02-16T01:29:37;85848.34;;;21.38;68.86
81151;BME280;70629;-26.026;27.976;2024-02-16T01:30:17;85851.78;;;21.53;68.74
81151;BME280;70629;-26.026;27.976;2024-02-16T01:30:57;85845.63;;;21.64;68.34
81151;BME280;70629;-26.026;27.976;2024-02-16T01:31:37;85850.41;;;21.62;68.03
81151;BME280;70629;-26.026;27.976;2024-02-16T01:32:17;85849.75;;;21.69;68.33
81151;BME280;70629;-26.026;27.976;2024-02-16T01:32:58;85847.00;;;21.33;69.08
81151;BME280;70629;-26.026;27.976;2024-02-16T01:33:38;85855.16;;;21.21;69.14
81151;BME280;70629;-26.026;27.976;2024-02-16T01:34:18;85852.44;;;21.27;69.70
81151;BME280;70629;-26.026;27.976;2024-02-16T01:34:58;85854.50;;;21.49;69.01
81151;BME280;70629;-26.026;27.976;2024-02-16T01:35:39;85857.94;;;21.37;69.11
81151;BME280;70629;-26.026;27.976;2024-02-16T01:36:19;85855.19;;;21.31;69.24
81151;BME280;70629;-26.026;27.976;2024-02-16T01:36:59;85867.50;;;21.48;69.61
81151;BME280;70629;-26.026;27.976;2024-02-16T01:37:39;85859.28;;;21.34;69.54
81151;BME280;70629;-26.026;27.976;2024-02-16T01:38:20;85862.63;;;21.10;70.10
81151;BME280;70629;-26.026;27.976;2024-02-16T01:39:02;85867.41;;;21.10;70.30
81151;BME280;70629;-26.026;27.976;2024-02-16T01:39:42;85867.50;;;21.32;70.13
81151;BME280;70629;-26.026;27.976;2024-02-16T01:40:21;85866.09;;;21.21;70.32
81151;BME280;70629;-26.026;27.976;2024-02-16T01:41:01;85867.50;;;21.44;69.99
81151;BME280;70629;-26.026;27.976;2024-02-16T01:41:41;85868.16;;;21.16;70.94
81151;BME280;70629;-26.026;27.976;2024-02-16T01:42:21;85870.84;;;21.04;71.35
81151;BME280;70629;-26.026;27.976;2024-02-16T01:43:01;85864.03;;;21.15;71.09
81151;BME280;70629;-26.026;27.976;2024-02-16T01:43:41;85875.00;;;21.21;70.72
81151;BME280;70629;-26.026;27.976;2024-02-16T01:44:21;85877.06;;;21.31;69.73
81151;BME280;70629;-26.026;27.976;2024-02-16T01:45:00;85868.88;;;21.49;69.38
81151;BME280;70629;-26.026;27.976;2024-02-16T01:45:40;85874.31;;;21.29;70.05
81151;BME280;70629;-26.026;27.976;2024-02-16T01:46:23;85871.53;;;21.13;70.97
81151;BME280;70629;-26.026;27.976;2024-02-16T01:47:03;85870.13;;;20.89;72.32
81151;BME280;70629;-26.026;27.976;2024-02-16T01:47:44;85864.66;;;20.93;72.68
81151;BME280;70629;-26.026;27.976;2024-02-16T01:48:26;85874.28;;;21.13;71.89
81151;BME280;70629;-26.026;27.976;2024-02-16T01:49:07;85874.31;;;21.17;71.42
81151;BME280;70629;-26.026;27.976;2024-02-16T01:49:47;85868.81;;;21.15;71.63
81151;BME280;70629;-26.026;27.976;2024-02-16T01:50:28;85873.66;;;21.30;71.18
81151;BME280;70629;-26.026;27.976;2024-02-16T01:51:11;85872.28;;;21.39;71.06
81151;BME280;70629;-26.026;27.976;2024-02-16T01:51:52;85872.28;;;21.39;71.20
81151;BME280;70629;-26.026;27.976;2024-02-16T01:52:33;85874.25;;;21.11;71.08
81151;BME280;70629;-26.026;27.976;2024-02-16T01:53:18;85870.75;;;20.82;72.50
81151;BME280;70629;-26.026;27.976;2024-02-16T01:53:58;85870.06;;;20.77;73.83
81151;BME280;70629;-26.026;27.976;2024-02-16T01:54:38;85877.63;;;20.91;73.04
81151;BME280;70629;-26.026;27.976;2024-02-16T01:55:20;85876.28;;;21.00;73.17
81151;BME280;70629;-26.026;27.976;2024-02-16T01:56:06;85881.16;;;21.14;72.35
81151;BME280;70629;-26.026;27.976;2024-02-16T01:56:46;85875.69;;;21.14;72.25
81151;BME280;70629;-26.026;27.976;2024-02-16T01:57:27;85880.38;;;20.89;73.30
81151;BME280;70629;-26.026;27.976;2024-02-16T01:58:08;85885.16;;;21.00;73.72
81151;BME280;70629;-26.026;27.976;2024-02-16T01:58:48;85886.56;;;21.06;73.10
81151;BME280;70629;-26.026;27.976;2024-02-16T01:59:29;85886.63;;;21.18;72.90
81151;BME280;70629;-26.026;27.976;2024-02-16T02:00:11;85887.31;;;21.28;72.25
81151;BME280;70629;-26.026;27.976;2024-02-16T02:00:51;85888.72;;;21.41;71.96
81151;BME280;70629;-26.026;27.976;2024-02-16T02:01:31;85888.03;;;21.45;71.24
81151;BME280;70629;-26.026;27.976;2024-02-16T02:02:11;85890.06;;;21.32;71.59
81151;BME280;70629;-26.026;27.976;2024-02-16T02:02:51;85887.31;;;21.28;71.64
81151;BME280;70629;-26.026;27.976;2024-02-16T02:03:31;85895.50;;;21.20;72.52
81151;BME280;70629;-26.026;27.976;2024-02-16T02:04:11;85897.56;;;21.16;72.70
81151;BME280;70629;-26.026;27.976;2024-02-16T02:04:51;85898.88;;;21.07;73.29
81151;BME280;70629;-26.026;27.976;2024-02-16T02:05:32;85897.56;;;21.14;73.06
81151;BME280;70629;-26.026;27.976;2024-02-16T02:06:12;85905.00;;;21.03;72.72
81151;BME280;70629;-26.026;27.976;2024-02-16T02:06:52;85900.28;;;21.14;72.18
81151;BME280;70629;-26.026;27.976;2024-02-16T02:07:32;85899.59;;;21.13;72.56
81151;BME280;70629;-26.026;27.976;2024-02-16T02:08:13;85899.56;;;21.07;72.23
81151;BME280;70629;-26.026;27.976;2024-02-16T02:08:54;85903.03;;;21.18;72.27
81151;BME280;70629;-26.026;27.976;2024-02-16T02:09:33;85900.31;;;21.26;72.40
81151;BME280;70629;-26.026;27.976;2024-02-16T02:10:13;85904.41;;;21.19;71.94
81151;BME280;70629;-26.026;27.976;2024-02-16T02:10:54;85903.03;;;21.14;72.39
81151;BME280;70629;-26.026;27.976;2024-02-16T02:11:34;85907.03;;;20.96;72.30
81151;BME280;70629;-26.026;27.976;2024-02-16T02:12:13;85906.38;;;21.04;72.63
81151;BME280;70629;-26.026;27.976;2024-02-16T02:12:53;85908.25;;;20.55;73.94
81151;BME280;70629;-26.026;27.976;2024-02-16T02:13:33;85916.41;;;20.47;74.87
81151;BME280;70629;-26.026;27.976;2024-02-16T02:14:13;85909.69;;;20.78;74.38
81151;BME280;70629;-26.026;27.976;2024-02-16T02:14:52;85910.41;;;20.87;74.16
81151;BME280;70629;-26.026;27.976;2024-02-16T02:15:32;85916.59;;;20.89;73.49
81151;BME280;70629;-26.026;27.976;2024-02-16T02:16:19;85920.66;;;20.86;73.91
81151;BME280;70629;-26.026;27.976;2024-02-16T02:16:59;85922.06;;;20.89;73.82
81151;BME280;70629;-26.026;27.976;2024-02-16T02:17:39;85923.41;;;20.86;73.68
81151;BME280;70629;-26.026;27.976;2024-02-16T02:18:19;85923.41;;;20.88;73.66
81151;BME280;70629;-26.026;27.976;2024-02-16T02:19:00;85924.78;;;20.95;73.12
81151;BME280;70629;-26.026;27.976;2024-02-16T02:19:40;85930.28;;;20.97;73.51
81151;BME280;70629;-26.026;27.976;2024-02-16T02:20:20;85933.03;;;21.03;72.85
81151;BME280;70629;-26.026;27.976;2024-02-16T02:20:59;85930.91;;;20.86;73.69
81151;BME280;70629;-26.026;27.976;2024-02-16T02:21:39;85934.97;;;20.77;74.13
81151;BME280;70629;-26.026;27.976;2024-02-16T02:22:20;85936.41;;;20.88;74.14
81151;BME280;70629;-26.026;27.976;2024-02-16T02:23:00;85934.41;;;21.02;73.55
81151;BME280;70629;-26.026;27.976;2024-02-16T02:23:41;85937.13;;;21.02;73.52
81151;BME280;70629;-26.026;27.976;2024-02-16T02:24:21;85937.16;;;21.09;73.40
81151;BME280;70629;-26.026;27.976;2024-02-16T02:25:01;85933.09;;;21.16;73.22
81151;BME280;70629;-26.026;27.976;2024-02-16T02:25:41;85939.19;;;21.04;73.73
81151;BME280;70629;-26.026;27.976;2024-02-16T02:26:20;85942.63;;;21.11;73.05
81151;BME280;70629;-26.026;27.976;2024-02-16T02:27:00;85938.53;;;21.08;72.53
81151;BME280;70629;-26.026;27.976;2024-02-16T02:27:42;85942.63;;;21.11;72.34
81151;BME280;70629;-26.026;27.976;2024-02-16T02:28:21;85937.81;;;21.01;72.47
81151;BME280;70629;-26.026;27.976;2024-02-16T02:29:03;85939.19;;;21.04;71.95
81151;BME280;70629;-26.026;27.976;2024-02-16T02:29:44;85943.25;;;20.93;73.03
81151;BME280;70629;-26.026;27.976;2024-02-16T02:30:24;85940.56;;;21.03;73.59
81151;BME280;70629;-26.026;27.976;2024-02-16T02:31:04;85935.72;;;20.85;74.27
81151;BME280;70629;-26.026;27.976;2024-02-16T02:31:43;85941.94;;;21.08;74.08
81151;BME280;70629;-26.026;27.976;2024-02-16T02:32:23;85935.78;;;21.08;73.22
81151;BME280;70629;-26.026;27.976;2024-02-16T02:33:04;85935.78;;;21.06;72.66
81151;BME280;70629;-26.026;27.976;2024-02-16T02:33:44;85939.19;;;21.04;72.52
81151;BME280;70629;-26.026;27.976;2024-02-16T02:34:24;85933.13;;;21.22;71.72
81151;BME280;70629;-26.026;27.976;2024-02-16T02:35:05;85938.59;;;21.14;72.11
81151;BME280;70629;-26.026;27.976;2024-02-16T02:35:45;85933.09;;;21.14;72.30
81151;BME280;70629;-26.026;27.976;2024-02-16T02:36:26;85933.06;;;21.12;71.90
81151;BME280;70629;-26.026;27.976;2024-02-16T02:37:06;85931.63;;;20.92;72.71
81151;BME280;70629;-26.026;27.976;2024-02-16T02:37:46;85935.09;;;21.03;72.26
81151;BME280;70629;-26.026;27.976;2024-02-16T02:38:27;85936.44;;;20.94;72.02
81151;BME280;70629;-26.026;27.976;2024-02-16T02:39:07;85935.03;;;20.85;72.76
81151;BME280;70629;-26.026;27.976;2024-02-16T02:39:46;85934.34;;;20.86;73.44
81151;BME280;70629;-26.026;27.976;2024-02-16T02:40:27;85933.72;;;21.06;73.04
81151;BME280;70629;-26.026;27.976;2024-02-16T02:41:06;85938.50;;;21.06;73.02
81151;BME280;70629;-26.026;27.976;2024-02-16T02:41:46;85935.72;;;20.91;73.64
81151;BME280;70629;-26.026;27.976;2024-02-16T02:42:26;85929.53;;;20.81;74.39
81151;BME280;70629;-26.026;27.976;2024-02-16T02:43:07;85936.38;;;20.84;74.49
81151;BME280;70629;-26.026;27.976;2024-02-16T02:43:48;85926.81;;;20.85;74.37
81151;BME280;70629;-26.026;27.976;2024-02-16T02:44:28;85936.97;;;20.62;74.94
81151;BME280;70629;-26.026;27.976;2024-02-16T02:45:10;85941.13;;;20.77;74.89
81151;BME280;70629;-26.026;27.976;2024-02-16T02:45:51;85933.00;;;20.89;74.20
81151;BME280;70629;-26.026;27.976;2024-02-16T02:46:30;85938.53;;;21.08;73.39
81151;BME280;70629;-26.026;27.976;2024-02-16T02:47:10;85937.88;;;21.15;72.78
81151;BME280;70629;-26.026;27.976;2024-02-16T02:47:51;85939.97;;;21.25;72.89
81151;BME280;70629;-26.026;27.976;2024-02-16T02:48:31;85934.41;;;21.11;72.83
81151;BME280;70629;-26.026;27.976;2024-02-16T02:49:12;85943.91;;;20.85;73.86
81151;BME280;70629;-26.026;27.976;2024-02-16T02:49:52;85942.44;;;20.62;74.49
81151;BME280;70629;-26.026;27.976;2024-02-16T02:50:32;85945.22;;;20.70;74.48
81151;BME280;70629;-26.026;27.976;2024-02-16T02:51:12;85941.22;;;20.93;74.43
81151;BME280;70629;-26.026;27.976;2024-02-16T02:51:51;85944.59;;;20.92;74.04
81151;BME280;70629;-26.026;27.976;2024-02-16T02:52:31;85938.50;;;20.99;74.33
81151;BME280;70629;-26.026;27.976;2024-02-16T02:53:14;85944.06;;;21.18;73.59
81151;BME280;70629;-26.026;27.976;2024-02-16T02:53:54;85945.41;;;21.17;73.27
81151;BME280;70629;-26.026;27.976;2024-02-16T02:54:34;85947.47;;;21.16;72.69
81151;BME280;70629;-26.026;27.976;2024-02-16T02:55:14;85939.91;;;21.13;73.40
81151;BME280;70629;-26.026;27.976;2024-02-16T02:55:54;85940.66;;;21.27;72.96
81151;BME280;70629;-26.026;27.976;2024-02-16T02:56:34;85950.22;;;21.22;72.80
81151;BME280;70629;-26.026;27.976;2024-02-16T02:57:14;85954.31;;;21.25;73.04
81151;BME280;70629;-26.026;27.976;2024-02-16T02:57:54;85950.84;;;21.13;73.33
81151;BME280;70629;-26.026;27.976;2024-02-16T02:58:35;85946.72;;;21.10;73.30
81151;BME280;70629;-26.026;27.976;2024-02-16T02:59:15;85954.88;;;20.95;74.13
81151;BME280;70629;-26.026;27.976;2024-02-16T03:00:05;85948.06;;;20.94;73.76
81151;BME280;70629;-26.026;27.976;2024-02-16T03:00:50;85950.78;;;21.00;73.26
81151;BME280;70629;-26.026;27.976;2024-02-16T03:01:30;85959.03;;;21.05;73.08
81151;BME280;70629;-26.026;27.976;2024-02-16T03:02:10;85957.72;;;21.14;73.15
81151;BME280;70629;-26.026;27.976;2024-02-16T03:02:50;85955.53;;;20.88;73.69
81151;BME280;70629;-26.026;27.976;2024-02-16T03:03:30;85961.72;;;20.94;73.91
81151;BME280;70629;-26.026;27.976;2024-02-16T03:04:10;85962.38;;;20.91;73.76
81151;BME280;70629;-26.026;27.976;2024-02-16T03:04:50;85965.75;;;20.83;74.80
81151;BME280;70629;-26.026;27.976;2024-02-16T03:05:30;85968.50;;;20.83;75.04
81151;BME280;70629;-26.026;27.976;2024-02-16T03:06:10;85965.81;;;20.97;74.30
81151;BME280;70629;-26.026;27.976;2024-02-16T03:06:52;85963.81;;;21.06;73.99
81151;BME280;70629;-26.026;27.976;2024-02-16T03:07:33;85965.88;;;21.12;74.01
81151;BME280;70629;-26.026;27.976;2024-02-16T03:08:13;85961.16;;;21.24;73.23
81151;BME280;70629;-26.026;27.976;2024-02-16T03:08:53;85959.75;;;21.15;73.64
81151;BME280;70629;-26.026;27.976;2024-02-16T03:09:33;85961.16;;;21.24;73.80
81151;BME280;70629;-26.026;27.976;2024-02-16T03:10:14;85961.09;;;21.10;73.92
81151;BME280;70629;-26.026;27.976;2024-02-16T03:10:59;85958.97;;;20.92;74.45
81151;BME280;70629;-26.026;27.976;2024-02-16T03:11:40;85958.97;;;20.90;75.06
81151;BME280;70629;-26.026;27.976;2024-02-16T03:12:19;85965.88;;;21.08;74.87
81151;BME280;70629;-26.026;27.976;2024-02-16T03:13:00;85962.44;;;21.03;74.24
81151;BME280;70629;-26.026;27.976;2024-02-16T03:13:40;85958.34;;;21.08;74.63
81151;BME280;70629;-26.026;27.976;2024-02-16T03:14:19;85963.09;;;20.99;74.41
81151;BME280;70629;-26.026;27.976;2024-02-16T03:14:59;85959.00;;;21.02;74.39
81151;BME280;70629;-26.026;27.976;2024-02-16T03:15:40;85965.88;;;21.12;74.48
81151;BME280;70629;-26.026;27.976;2024-02-16T03:16:20;85963.13;;;21.06;74.42
81151;BME280;70629;-26.026;27.976;2024-02-16T03:17:00;85956.97;;;21.05;73.67
81151;BME280;70629;-26.026;27.976;2024-02-16T03:17:40;85959.06;;;21.13;73.92
81151;BME280;70629;-26.026;27.976;2024-02-16T03:18:20;85958.34;;;21.04;74.50
81151;BME280;70629;-26.026;27.976;2024-02-16T03:19:00;85959.06;;;21.13;74.09
81151;BME280;70629;-26.026;27.976;2024-02-16T03:19:40;85964.53;;;21.15;73.67
81151;BME280;70629;-26.026;27.976;2024-02-16T03:20:20;85959.66;;;20.97;74.00
81151;BME280;70629;-26.026;27.976;2024-02-16T03:21:01;85965.09;;;20.91;74.45
81151;BME280;70629;-26.026;27.976;2024-02-16T03:21:41;85972.63;;;20.92;74.28
81151;BME280;70629;-26.026;27.976;2024-02-16T03:22:21;85970.63;;;21.01;73.61
81151;BME280;70629;-26.026;27.976;2024-02-16T03:23:00;85971.34;;;21.10;73.48
81151;BME280;70629;-26.026;27.976;2024-02-16T03:23:40;85975.44;;;21.07;73.67
81151;BME280;70629;-26.026;27.976;2024-02-16T03:24:20;85974.72;;;21.02;73.97
81151;BME280;70629;-26.026;27.976;2024-02-16T03:25:00;85968.53;;;20.91;74.51
81151;BME280;70629;-26.026;27.976;2024-02-16T03:25:40;85964.44;;;20.90;74.18
81151;BME280;70629;-26.026;27.976;2024-02-16T03:26:20;85977.38;;;20.80;75.18
81151;BME280;70629;-26.026;27.976;2024-02-16T03:27:00;85968.50;;;20.85;75.05
81151;BME280;70629;-26.026;27.976;2024-02-16T03:27:40;85966.47;;;20.92;74.82
81151;BME280;70629;-26.026;27.976;2024-02-16T03:28:20;85971.19;;;20.71;75.26